Albert Maersk — OUOW2 — position and weather

sailwx.info

Track history (hours):
 
Tides and Currents Weather Stations Pressure Air Temp Water Temp Dewpoint Dewpoint Depression Visibility Wind Speed Wind Dir Waves Ship Positions

Albert Maersk

Last reported at 2015-Jun-28 16:32 UTC. Time now 2015-Jul-02 23:06 UTC.
Position N 01°55' E 102°19'.

MMSI: 220259928.

Date/timePositionNaut miles runAvg speedWind from/ knotsBaromVisibWave heightAir tempDewpointWater temp
2015-Jun-28 16:32N 01°55' E 102°19'1919.3
2015-Jun-28 15:34N 01°47' E 102°36'7416.9
2015-Jun-28 11:12N 01°14' E 103°42'5 7.4
2015-Jun-28 10:33N 01°17' E 103°45'0 0.1
2015-Jun-28 09:33N 01°17' E 103°45'0 0.0
2015-Jun-28 08:33N 01°17' E 103°45'0 0.0
2015-Jun-28 07:30N 01°17' E 103°45'0 0.0
2015-Jun-28 06:33N 01°17' E 103°45'0 0.0
2015-Jun-28 05:24N 01°17' E 103°45'0 0.0
2015-Jun-28 04:33N 01°17' E 103°45'0 0.0
2015-Jun-28 03:33N 01°17' E 103°45'0 0.0
2015-Jun-28 02:27N 01°17' E 103°45'0 0.0
2015-Jun-28 01:30N 01°17' E 103°45'0 0.0
2015-Jun-28 00:30N 01°17' E 103°45'0 0.0
2015-Jun-27 23:33N 01°17' E 103°45'0 0.0
2015-Jun-27 22:33N 01°17' E 103°45'0 0.0
2015-Jun-27 21:30N 01°17' E 103°45'0 0.0
2015-Jun-27 20:33N 01°17' E 103°45'0 0.0
2015-Jun-27 19:33N 01°17' E 103°45'0 0.0
2015-Jun-27 18:33N 01°17' E 103°45'0 0.0
2015-Jun-27 17:33N 01°17' E 103°45'0 0.0
2015-Jun-27 16:32N 01°17' E 103°45'1 1.4
2015-Jun-27 15:34N 01°16' E 103°46'7 6.8
2015-Jun-27 14:34N 01°13' E 103°52'4 3.9
2015-Jun-27 13:33N 01°14' E 103°56'6 6.1
2015-Jun-27 12:33N 01°16' E 104°02'1211.7
2015-Jun-27 11:33N 01°17' E 104°14'  
2015-Jun-22 19:19N 22°17' E 114°06'1110.7
2015-Jun-22 18:15N 22°22' E 113°55'5 6.5
2015-Jun-22 17:32N 22°26' E 113°53'2 0.2
2015-Jun-22 09:32N 22°28' E 113°52'25614.1
2015-Jun-21 15:21N 23°44' E 118°18'1214.5
2015-Jun-21 14:33N 23°52' E 118°27'6115.3
2015-Jun-21 10:33N 24°28' E 119°21'1615.6
2015-Jun-21 09:33N 24°38' E 119°34'1815.6
2015-Jun-21 08:24N 24°49' E 119°50'30914.8
2015-Jun-20 11:30N 29°23' E 122°30'1616.5
2015-Jun-20 10:30N 29°39' E 122°28'1414.8
2015-Jun-20 09:33N 29°48' E 122°15'1111.2
2015-Jun-20 08:33N 29°54' E 122°04'1 0.5
2015-Jun-20 06:33N 29°53' E 122°03'0 0.0
2015-Jun-20 05:15N 29°53' E 122°03'0 0.0
2015-Jun-20 04:33N 29°53' E 122°03'0 0.1
2015-Jun-20 03:33N 29°53' E 122°03'0 0.0
2015-Jun-20 02:04N 29°53' E 122°03'0 0.0
2015-Jun-20 00:33N 29°53' E 122°03'0 0.0
2015-Jun-19 23:29N 29°53' E 122°03'0 0.0
2015-Jun-19 22:33N 29°53' E 122°03'4 4.0
2015-Jun-19 21:33N 29°55' E 122°07'1212.2
2015-Jun-19 20:33N 29°46' E 122°17'9 9.4
2015-Jun-19 19:33N 29°43' E 122°27'10 9.5
2015-Jun-19 18:32N 29°42' E 122°38'1110.9
2015-Jun-19 17:32N 29°48' E 122°49'7 6.6
2015-Jun-19 16:33N 29°52' E 122°54'35 5.5
2015-Jun-19 10:15N 30°27' E 122°48'2413.5
2015-Jun-19 08:30N 30°32' E 122°22'1514.4
2015-Jun-19 07:27N 30°36' E 122°05'2 1.7
2015-Jun-19 06:18N 30°38' E 122°03'0 0.0
2015-Jun-19 05:30N 30°38' E 122°03'0 0.0
2015-Jun-19 04:33N 30°38' E 122°03'0 0.0
2015-Jun-19 03:32N 30°38' E 122°03'0 0.3
2015-Jun-19 02:34N 30°38' E 122°03'0 0.2
2015-Jun-19 01:25N 30°38' E 122°03'0 0.0
2015-Jun-19 00:24N 30°38' E 122°03'0 0.0
2015-Jun-18 23:33N 30°38' E 122°03'0 0.0
2015-Jun-18 22:19N 30°38' E 122°03'0 0.0
2015-Jun-18 21:25N 30°38' E 122°03'2 2.6
2015-Jun-18 20:33N 30°36' E 122°05'1111.0
2015-Jun-18 19:33N 30°33' E 122°17'9 9.4
2015-Jun-18 18:33N 30°32' E 122°28'1310.0
2015-Jun-18 17:15N 30°26' E 122°41'  
Track history (hours):
 
Tides and Currents Weather Stations Pressure Air Temp Water Temp Dewpoint Dewpoint Depression Visibility Wind Speed Wind Dir Waves Ship Positions

Albert Maersk

Last reported at 2015-Jun-28 16:32 UTC. Time now 2015-Jul-02 23:06 UTC.
Position N 01°55' E 102°19'.

MMSI: 220259928.

Date/timePositionNaut miles runAvg speedWind from/ knotsBaromVisibWave heightAir tempDewpointWater temp
2015-Jun-28 16:32N 01°55' E 102°19'1919.3
2015-Jun-28 15:34N 01°47' E 102°36'7416.9
2015-Jun-28 11:12N 01°14' E 103°42'5 7.4
2015-Jun-28 10:33N 01°17' E 103°45'0 0.1
2015-Jun-28 09:33N 01°17' E 103°45'0 0.0
2015-Jun-28 08:33N 01°17' E 103°45'0 0.0
2015-Jun-28 07:30N 01°17' E 103°45'0 0.0
2015-Jun-28 06:33N 01°17' E 103°45'0 0.0
2015-Jun-28 05:24N 01°17' E 103°45'0 0.0
2015-Jun-28 04:33N 01°17' E 103°45'0 0.0
2015-Jun-28 03:33N 01°17' E 103°45'0 0.0
2015-Jun-28 02:27N 01°17' E 103°45'0 0.0
2015-Jun-28 01:30N 01°17' E 103°45'0 0.0
2015-Jun-28 00:30N 01°17' E 103°45'0 0.0
2015-Jun-27 23:33N 01°17' E 103°45'0 0.0
2015-Jun-27 22:33N 01°17' E 103°45'0 0.0
2015-Jun-27 21:30N 01°17' E 103°45'0 0.0
2015-Jun-27 20:33N 01°17' E 103°45'0 0.0
2015-Jun-27 19:33N 01°17' E 103°45'0 0.0
2015-Jun-27 18:33N 01°17' E 103°45'0 0.0
2015-Jun-27 17:33N 01°17' E 103°45'0 0.0
2015-Jun-27 16:32N 01°17' E 103°45'1 1.4
2015-Jun-27 15:34N 01°16' E 103°46'7 6.8
2015-Jun-27 14:34N 01°13' E 103°52'4 3.9
2015-Jun-27 13:33N 01°14' E 103°56'6 6.1
2015-Jun-27 12:33N 01°16' E 104°02'1211.7
2015-Jun-27 11:33N 01°17' E 104°14'  
2015-Jun-22 19:19N 22°17' E 114°06'1110.7
2015-Jun-22 18:15N 22°22' E 113°55'5 6.5
2015-Jun-22 17:32N 22°26' E 113°53'2 0.2
2015-Jun-22 09:32N 22°28' E 113°52'25614.1
2015-Jun-21 15:21N 23°44' E 118°18'1214.5
2015-Jun-21 14:33N 23°52' E 118°27'6115.3
2015-Jun-21 10:33N 24°28' E 119°21'1615.6
2015-Jun-21 09:33N 24°38' E 119°34'1815.6
2015-Jun-21 08:24N 24°49' E 119°50'30914.8
2015-Jun-20 11:30N 29°23' E 122°30'1616.5
2015-Jun-20 10:30N 29°39' E 122°28'1414.8
2015-Jun-20 09:33N 29°48' E 122°15'1111.2
2015-Jun-20 08:33N 29°54' E 122°04'1 0.5
2015-Jun-20 06:33N 29°53' E 122°03'0 0.0
2015-Jun-20 05:15N 29°53' E 122°03'0 0.0
2015-Jun-20 04:33N 29°53' E 122°03'0 0.1
2015-Jun-20 03:33N 29°53' E 122°03'0 0.0
2015-Jun-20 02:04N 29°53' E 122°03'0 0.0
2015-Jun-20 00:33N 29°53' E 122°03'0 0.0
2015-Jun-19 23:29N 29°53' E 122°03'0 0.0
2015-Jun-19 22:33N 29°53' E 122°03'4 4.0
2015-Jun-19 21:33N 29°55' E 122°07'1212.2
2015-Jun-19 20:33N 29°46' E 122°17'9 9.4
2015-Jun-19 19:33N 29°43' E 122°27'10 9.5
2015-Jun-19 18:32N 29°42' E 122°38'1110.9
2015-Jun-19 17:32N 29°48' E 122°49'7 6.6
2015-Jun-19 16:33N 29°52' E 122°54'35 5.5
2015-Jun-19 10:15N 30°27' E 122°48'2413.5
2015-Jun-19 08:30N 30°32' E 122°22'1514.4
2015-Jun-19 07:27N 30°36' E 122°05'2 1.7
2015-Jun-19 06:18N 30°38' E 122°03'0 0.0
2015-Jun-19 05:30N 30°38' E 122°03'0 0.0
2015-Jun-19 04:33N 30°38' E 122°03'0 0.0
2015-Jun-19 03:32N 30°38' E 122°03'0 0.3
2015-Jun-19 02:34N 30°38' E 122°03'0 0.2
2015-Jun-19 01:25N 30°38' E 122°03'0 0.0
2015-Jun-19 00:24N 30°38' E 122°03'0 0.0
2015-Jun-18 23:33N 30°38' E 122°03'0 0.0
2015-Jun-18 22:19N 30°38' E 122°03'0 0.0
2015-Jun-18 21:25N 30°38' E 122°03'2 2.6
2015-Jun-18 20:33N 30°36' E 122°05'1111.0
2015-Jun-18 19:33N 30°33' E 122°17'9 9.4
2015-Jun-18 18:33N 30°32' E 122°28'1310.0
2015-Jun-18 17:15N 30°26' E 122°41'  

Dump ship's entire track history